Time;durP1;ratioP1;P1;durP2;ratioP2;P2;SDS_P1;SDS_P2;PMS_P1;PMS_P2;Temp;Humidity;BMP_temperature;BMP_pressure;BME280_temperature;BME280_humidity;BME280_pressure;Samples;Min_cycle;Max_cycle;Signal;HPM_P1;HPM_P2
2021/06/14 00:00:29;;;;;;;17.87;5.87;;;;;;;16.48;100.00;100434.27;1699014;84;21053;-82
2021/06/14 00:02:55;;;;;;;11.93;6.25;;;;;;;16.47;100.00;100433.19;1699078;84;20953;-81
2021/06/14 00:05:43;;;;;;;14.23;5.40;;;;;;;16.45;100.00;100440.31;1699019;84;21148;-82
2021/06/14 00:08:19;;;;;;;13.40;6.08;;;;;;;16.45;100.00;100431.34;1698861;84;21045;-82
2021/06/14 00:10:48;;;;;;;17.80;6.28;;;;;;;16.45;100.00;100434.87;1698674;83;21536;-82
2021/06/14 00:13:15;;;;;;;13.95;6.28;;;;;;;16.44;100.00;100432.44;1699128;84;20989;-82
2021/06/14 00:15:44;;;;;;;11.53;6.03;;;;;;;16.39;100.00;100438.80;1699116;84;21057;-82
2021/06/14 00:18:11;;;;;;;10.98;6.03;;;;;;;16.36;100.00;100442.12;1699048;84;21190;-82
2021/06/14 00:20:39;;;;;;;17.23;6.28;;;;;;;16.33;100.00;100447.61;1699688;84;21045;-82
2021/06/14 00:23:08;;;;;;;14.45;5.80;;;;;;;16.29;100.00;100437.06;1700820;84;21084;-82
2021/06/14 00:25:34;;;;;;;16.45;6.78;;;;;;;16.16;100.00;100422.12;1699260;84;20998;-82
2021/06/14 00:28:01;;;;;;;15.10;5.70;;;;;;;16.24;100.00;100439.91;1699141;84;21005;-82
2021/06/14 00:30:43;;;;;;;13.18;5.35;;;;;;;16.23;100.00;100439.64;1694915;84;21112;-82
2021/06/14 00:33:10;;;;;;;11.20;5.85;;;;;;;16.20;100.00;100444.31;1699234;83;21514;-82
2021/06/14 00:35:37;;;;;;;16.20;5.95;;;;;;;16.17;100.00;100438.68;1699150;84;21457;-82
2021/06/14 00:38:05;;;;;;;14.07;6.28;;;;;;;16.17;100.00;100447.64;1699161;84;21504;-82
2021/06/14 00:40:32;;;;;;;11.70;5.95;;;;;;;16.16;100.00;100446.04;1699096;84;21567;-82
2021/06/14 00:42:59;;;;;;;12.82;6.00;;;;;;;16.16;100.00;100448.75;1698966;84;21078;-81
2021/06/14 00:45:30;;;;;;;14.98;5.53;;;;;;;16.13;100.00;100452.08;1698911;84;21014;-82
2021/06/14 00:47:58;;;;;;;15.68;5.92;;;;;;;16.12;100.00;100454.55;1698904;84;20966;-82
2021/06/14 00:50:53;;;;;;;14.03;5.50;;;;;;;16.09;100.00;100453.80;1699000;84;21041;-82
2021/06/14 00:53:24;;;;;;;14.45;5.83;;;;;;;16.05;100.00;100455.48;1698898;84;21120;-82
2021/06/14 00:55:51;;;;;;;19.87;6.00;;;;;;;16.00;100.00;100457.76;1698990;84;21136;-82
2021/06/14 00:58:18;;;;;;;13.22;5.47;;;;;;;15.96;100.00;100455.92;1699026;84;21064;-82
2021/06/14 01:00:45;;;;;;;24.05;5.97;;;;;;;15.97;100.00;100456.16;1699144;84;21017;-82
2021/06/14 01:03:12;;;;;;;12.45;5.53;;;;;;;15.97;100.00;100461.60;1699095;84;21085;-82
2021/06/14 01:05:43;;;;;;;12.70;5.75;;;;;;;15.93;100.00;100461.95;1698998;84;21544;-82
2021/06/14 01:08:10;;;;;;;18.82;6.22;;;;;;;15.88;100.00;100465.03;1695487;84;21801;-81
2021/06/14 01:10:39;;;;;;;14.47;5.78;;;;;;;15.87;100.00;100457.96;1698653;82;21009;-82
2021/06/14 01:13:38;;;;;;;12.28;5.62;;;;;;;15.93;100.00;100455.16;1699147;84;20997;-82
2021/06/14 01:16:24;;;;;;;8.60;5.15;;;;;;;15.95;100.00;100460.56;1699221;84;21052;-82
2021/06/14 01:19:39;;;;;;;14.75;5.67;;;;;;;15.88;100.00;100455.52;1702406;84;21049;-82
2021/06/14 01:22:57;;;;;;;11.53;5.05;;;;;;;15.82;100.00;100457.24;1689196;85;21547;-83
2021/06/14 01:25:43;;;;;;;10.70;5.37;;;;;;;15.78;100.00;100462.47;1698095;84;21020;-82
2021/06/14 01:28:11;;;;;;;14.30;5.20;;;;;;;15.78;100.00;100467.91;1697178;84;21101;-81
2021/06/14 01:30:39;;;;;;;11.65;4.95;;;;;;;15.75;100.00;100469.06;1698012;84;21039;-82
2021/06/14 01:33:09;;;;;;;12.28;4.83;;;;;;;15.72;100.00;100473.73;1698107;84;20999;-82
2021/06/14 01:35:43;;;;;;;16.70;5.42;;;;;;;15.71;100.00;100466.14;1697804;84;21961;-82
2021/06/14 01:38:10;;;;;;;19.00;4.87;;;;;;;15.71;100.00;100474.28;1681804;84;21041;-82
2021/06/14 01:40:38;;;;;;;15.20;5.62;;;;;;;15.70;100.00;100478.09;1682078;85;21021;-82
2021/06/14 01:43:08;;;;;;;10.68;5.53;;;;;;;15.72;100.00;100486.75;1659161;85;21076;-82
2021/06/14 01:45:40;;;;;;;12.28;5.72;;;;;;;15.74;100.00;100486.48;1681987;85;21095;-82
2021/06/14 01:48:07;;;;;;;15.98;6.10;;;;;;;15.74;100.00;100485.92;1681901;85;21473;-82
2021/06/14 01:50:34;;;;;;;13.10;6.00;;;;;;;15.76;100.00;100491.04;1681950;85;21075;-82
2021/06/14 01:53:01;;;;;;;16.73;6.08;;;;;;;15.76;100.00;100498.63;1681991;85;21122;-82
2021/06/14 01:55:27;;;;;;;12.75;6.17;;;;;;;15.77;100.00;100499.47;1710461;83;21564;-82
2021/06/14 01:57:54;;;;;;;11.85;5.65;;;;;;;15.79;100.00;100496.68;1686671;83;21049;-82
2021/06/14 02:00:23;;;;;;;17.35;6.03;;;;;;;15.82;100.00;100494.73;1710334;83;21052;-81
2021/06/14 02:02:51;;;;;;;13.05;6.05;;;;;;;15.88;100.00;100502.25;1659959;83;21037;-82
2021/06/14 02:05:20;;;;;;;14.45;6.05;;;;;;;15.93;100.00;100504.89;1710595;83;20945;-82
2021/06/14 02:07:46;;;;;;;25.08;7.17;;;;;;;15.98;100.00;100513.52;1710623;83;21056;-82
2021/06/14 02:10:14;;;;;;;34.45;7.28;;;;;;;16.02;100.00;100517.24;1674929;84;21018;-81
2021/06/14 02:12:42;;;;;;;22.35;6.40;;;;;;;16.03;100.00;100519.67;1637606;87;21092;-82
2021/06/14 02:15:10;;;;;;;17.15;6.40;;;;;;;16.07;100.00;100517.97;1637555;87;21150;-82
2021/06/14 02:17:40;;;;;;;17.45;6.03;;;;;;;16.12;100.00;100523.88;1637756;87;21078;-82
2021/06/14 02:20:09;;;;;;;21.70;5.87;;;;;;;16.20;100.00;100530.53;1637674;87;21063;-82
2021/06/14 02:22:37;;;;;;;25.82;6.75;;;;;;;16.24;100.00;100537.80;1637588;87;21082;-82
2021/06/14 02:25:10;;;;;;;19.40;6.65;;;;;;;16.31;100.00;100537.40;1637658;87;21168;-82
2021/06/14 02:27:37;;;;;;;17.90;6.15;;;;;;;16.35;100.00;100536.52;1637661;87;26618;-82
2021/06/14 02:30:12;;;;;;;20.48;6.78;;;;;;;16.41;100.00;100536.40;1637539;87;21022;-82
2021/06/14 02:32:38;;;;;;;19.77;6.92;;;;;;;16.46;100.00;100537.67;1577924;91;21079;-82
2021/06/14 02:35:08;;;;;;;23.52;6.62;;;;;;;16.58;100.00;100537.42;1585859;90;21074;-81
2021/06/14 02:37:37;;;;;;;17.67;6.60;;;;;;;16.71;100.00;100539.92;1580640;90;21840;-81
2021/06/14 02:40:07;;;;;;;17.65;6.70;;;;;;;16.87;100.00;100539.64;1567122;91;21483;-81
2021/06/14 02:42:37;;;;;;;17.07;6.20;;;;;;;16.99;100.00;100526.31;1601534;89;21123;-82
2021/06/14 02:45:06;;;;;;;20.62;6.40;;;;;;;16.99;100.00;100526.31;1592060;90;21527;-82
2021/06/14 02:47:34;;;;;;;22.67;6.37;;;;;;;17.45;100.00;100545.76;1567322;91;21057;-81
2021/06/14 02:50:04;;;;;;;20.05;6.33;;;;;;;18.04;100.00;100546.56;1601536;89;21131;-81
2021/06/14 02:52:33;;;;;;;12.25;6.45;;;;;;;18.62;100.00;100535.23;1591846;90;21142;-81
2021/06/14 02:55:05;;;;;;;14.33;5.85;;;;;;;19.15;100.00;100539.75;1567079;91;21111;-82
2021/06/14 02:57:32;;;;;;;13.62;5.92;;;;;;;19.72;100.00;100538.84;1554311;92;21052;-81
2021/06/14 02:59:59;;;;;;;13.15;5.67;;;;;;;19.86;100.00;100534.01;1543353;93;21152;-81
2021/06/14 03:02:27;;;;;;;15.40;6.10;;;;;;;19.70;100.00;100535.05;1518652;94;21131;-81
2021/06/14 03:04:54;;;;;;;10.82;6.08;;;;;;;19.38;100.00;100534.94;1518636;94;21146;-81
2021/06/14 03:07:27;;;;;;;15.75;5.70;;;;;;;19.15;100.00;100534.83;1538313;91;21416;-81
2021/06/14 03:09:53;;;;;;;21.20;6.67;;;;;;;19.03;100.00;100531.34;1473610;95;21089;-82
2021/06/14 03:12:21;;;;;;;15.03;6.47;;;;;;;19.01;100.00;100533.05;1475475;97;21093;-81
2021/06/14 03:14:47;;;;;;;12.07;5.45;;;;;;;19.40;100.00;100529.96;1452224;97;21226;-81
2021/06/14 03:17:15;;;;;;;13.40;6.20;;;;;;;19.96;100.00;100543.23;1460782;98;21170;-81
2021/06/14 03:19:43;;;;;;;12.35;6.30;;;;;;;20.41;100.00;100536.52;1509854;95;21139;-81
2021/06/14 03:22:09;;;;;;;20.85;5.90;;;;;;;20.89;100.00;100531.28;1509901;95;21090;-81
2021/06/14 03:24:38;;;;;;;20.88;6.35;;;;;;;21.31;100.00;100522.53;1510844;95;21193;-81
2021/06/14 03:27:06;;;;;;;22.45;6.55;;;;;;;21.61;100.00;100517.57;1510803;95;21633;-81
2021/06/14 03:29:33;;;;;;;29.07;6.95;;;;;;;22.04;100.00;100517.73;1510014;95;21076;-81
2021/06/14 03:32:01;;;;;;;31.95;6.05;;;;;;;22.33;100.00;100512.69;1509981;95;21716;-81
2021/06/14 03:34:28;;;;;;;28.90;6.90;;;;;;;22.49;100.00;100515.55;1509861;95;21189;-81
2021/06/14 03:36:58;;;;;;;23.07;6.22;;;;;;;22.61;100.00;100518.30;1540615;92;21035;-81
2021/06/14 03:39:24;;;;;;;18.27;5.33;;;;;;;22.84;100.00;100511.77;1546244;91;21179;-81
2021/06/14 03:41:51;;;;;;;23.98;5.58;;;;;;;23.24;100.00;100512.44;1556528;91;21022;-81
2021/06/14 03:44:20;;;;;;;19.90;5.05;;;;;;;23.54;100.00;100514.30;1550862;91;21857;-81
2021/06/14 03:46:49;;;;;;;18.10;5.30;;;;;;;23.71;100.00;100518.73;1543472;91;21120;-81
2021/06/14 03:49:15;;;;;;;16.05;5.62;;;;;;;23.86;100.00;100520.72;1545124;92;21256;-81
2021/06/14 03:51:41;;;;;;;14.25;5.70;;;;;;;24.25;100.00;100526.46;1543977;92;21153;-81
2021/06/14 03:54:07;;;;;;;20.02;5.22;;;;;;;24.45;100.00;100527.40;1565374;90;21078;-81
2021/06/14 03:56:35;;;;;;;14.60;5.85;;;;;;;24.48;100.00;100514.29;1595244;90;20942;-81
2021/06/14 03:59:02;;;;;;;11.68;5.85;;;;;;;24.89;100.00;100522.55;1594997;90;21082;-81
2021/06/14 04:01:29;;;;;;;24.98;6.03;;;;;;;25.01;100.00;100523.61;1595330;90;21121;-81
2021/06/14 04:06:21;;;;;;;19.15;6.67;;;;;;;25.42;100.00;100529.06;1638455;83;20995;-81
2021/06/14 04:08:47;;;;;;;17.02;6.22;;;;;;;25.85;100.00;100518.09;1738435;81;21719;-81
2021/06/14 04:11:13;;;;;;;26.05;6.30;;;;;;;25.85;100.00;100516.72;1740919;81;20868;-81
2021/06/14 04:13:39;;;;;;;15.88;6.28;;;;;;;25.85;100.00;100516.72;1733522;81;21120;-81
2021/06/14 04:16:05;;;;;;;21.12;6.80;;;;;;;26.14;100.00;100512.52;1761717;81;20990;-81
2021/06/14 04:18:31;;;;;;;25.50;6.78;;;;;;;26.28;100.00;100512.19;1757280;81;20930;-81
2021/06/14 04:20:57;;;;;;;14.70;6.72;;;;;;;26.67;100.00;100514.81;1755814;81;21695;-81
2021/06/14 04:23:23;;;;;;;18.27;7.10;;;;;;;27.07;100.00;100517.59;1760468;81;20864;-81
2021/06/14 04:25:48;;;;;;;33.45;8.28;;;;;;;27.25;100.00;100523.98;1738365;81;20963;-81
2021/06/14 04:28:14;;;;;;;34.08;8.10;;;;;;;27.53;100.00;100520.20;1740322;81;21919;-81
2021/06/14 04:30:40;;;;;;;28.32;7.78;;;;;;;27.93;100.00;100521.45;1761673;81;20926;-81
2021/06/14 04:33:06;;;;;;;20.30;7.55;;;;;;;28.08;100.00;100519.63;1761710;81;20947;-82
2021/06/14 04:35:32;;;;;;;14.83;6.05;;;;;;;28.26;100.00;100526.13;1761547;81;21525;-82
2021/06/14 04:37:58;;;;;;;15.80;5.90;;;;;;;28.38;100.00;100528.41;1761665;81;20955;-81
2021/06/14 04:40:24;;;;;;;10.00;5.17;;;;;;;28.34;100.00;100524.82;1761770;81;21143;-81
2021/06/14 04:42:50;;;;;;;8.10;5.50;;;;;;;28.40;100.00;100528.83;1761329;81;20975;-81
2021/06/14 04:45:16;;;;;;;9.28;5.35;;;;;;;28.38;100.00;100531.19;1763061;81;21727;-82
2021/06/14 04:47:45;;;;;;;23.92;6.00;;;;;;;28.04;100.00;100540.38;1752097;80;21025;-82
2021/06/14 04:50:11;;;;;;;10.75;5.00;;;;;;;28.10;100.00;100545.59;1741945;80;21553;-81
2021/06/14 04:52:37;;;;;;;14.30;5.60;;;;;;;28.42;100.00;100544.53;1731521;82;21132;-82
2021/06/14 04:55:03;;;;;;;14.70;5.67;;;;;;;28.28;100.00;100547.94;1731407;82;20907;-81
2021/06/14 04:57:29;;;;;;;14.03;5.60;;;;;;;28.22;100.00;100548.08;1731207;82;21101;-82
2021/06/14 04:59:55;;;;;;;9.28;5.60;;;;;;;28.37;100.00;100552.56;1731411;82;20883;-80
2021/06/14 05:02:21;;;;;;;6.80;5.15;;;;;;;28.87;100.00;100556.37;1731276;82;20985;-80
2021/06/14 05:04:47;;;;;;;9.68;5.03;;;;;;;28.95;99.13;100551.88;1731273;82;21121;-81
2021/06/14 05:07:12;;;;;;;7.47;4.85;;;;;;;29.02;100.00;100558.65;1731419;82;20864;-81
2021/06/14 05:09:38;;;;;;;9.33;4.75;;;;;;;29.17;100.00;100558.37;1731470;82;21029;-80
2021/06/14 05:12:06;;;;;;;14.45;5.37;;;;;;;29.49;99.16;100559.73;1731165;82;20952;-81
2021/06/14 05:14:32;;;;;;;6.12;4.40;;;;;;;29.92;95.62;100559.33;1731861;82;20991;-81
2021/06/14 05:16:58;;;;;;;7.33;4.60;;;;;;;30.00;92.57;100555.39;1731774;82;21946;-81
2021/06/14 05:19:23;;;;;;;6.30;4.55;;;;;;;30.33;93.46;100560.44;1727656;82;21123;-81
2021/06/14 05:21:49;;;;;;;6.58;4.15;;;;;;;30.78;87.98;100552.47;1731690;82;20935;-81
2021/06/14 05:24:15;;;;;;;6.10;3.75;;;;;;;30.75;84.28;100555.45;1708464;82;20950;-81
2021/06/14 05:26:41;;;;;;;8.03;3.65;;;;;;;30.68;86.55;100564.39;1731396;82;20991;-82
2021/06/14 05:29:07;;;;;;;4.83;3.67;;;;;;;30.87;85.83;100557.66;1731567;82;21402;-81
2021/06/14 05:31:33;;;;;;;5.92;3.47;;;;;;;31.12;83.65;100561.78;1731630;82;20975;-83
2021/06/14 05:34:01;;;;;;;4.58;3.15;;;;;;;31.48;79.61;100560.33;1731508;82;21104;-81
2021/06/14 05:36:27;;;;;;;6.67;3.58;;;;;;;31.65;79.55;100558.86;1731461;82;21003;-82
2021/06/14 05:38:54;;;;;;;6.03;3.80;;;;;;;31.80;74.92;100565.16;1773783;80;20979;-81
2021/06/14 05:41:20;;;;;;;10.48;4.30;;;;;;;31.68;75.91;100569.20;1721005;82;22061;-81
2021/06/14 05:43:46;;;;;;;5.15;3.62;;;;;;;31.79;77.63;100560.77;1720618;82;21062;-81
2021/06/14 05:46:14;;;;;;;4.95;3.47;;;;;;;32.22;74.84;100570.91;1723387;82;21068;-81
2021/06/14 05:48:40;;;;;;;6.70;3.00;;;;;;;32.50;72.07;100567.95;1781639;80;21057;-82
2021/06/14 05:51:08;;;;;;;9.83;3.33;;;;;;;32.87;71.20;100572.00;1765319;80;21140;-80
2021/06/14 05:53:34;;;;;;;4.85;3.70;;;;;;;33.02;68.02;100560.11;1761376;81;21300;-80
2021/06/14 05:56:03;;;;;;;10.13;3.72;;;;;;;33.11;66.89;100579.97;1727899;83;20969;-82
2021/06/14 05:58:29;;;;;;;7.97;3.22;;;;;;;33.01;65.85;100578.88;1727981;83;21552;-81
2021/06/14 06:01:18;;;;;;;7.05;3.90;;;;;;;32.78;66.01;100582.86;1727868;82;20922;-81
2021/06/14 06:03:38;;;;;;;8.95;3.70;;;;;;;32.06;69.54;100581.16;1622893;87;21094;-81
2021/06/14 06:06:04;;;;;;;5.97;3.47;;;;;;;32.17;68.83;100588.08;1633565;86;21202;-81
2021/06/14 06:08:30;;;;;;;6.65;3.60;;;;;;;31.93;70.28;100589.81;1620043;87;21087;-81
2021/06/14 06:10:56;;;;;;;6.58;2.80;;;;;;;31.93;71.83;100587.81;1594178;87;20946;-82
2021/06/14 06:13:22;;;;;;;6.95;2.92;;;;;;;31.79;70.41;100583.06;1594360;90;21675;-81
2021/06/14 06:15:48;;;;;;;4.58;2.20;;;;;;;31.51;70.68;100583.99;1594402;90;21018;-82
2021/06/14 06:18:14;;;;;;;5.83;2.80;;;;;;;31.88;69.14;100596.56;1594566;90;21711;-86
2021/06/14 06:21:19;;;;;;;;;;;;;;;;;;;;;
2021/06/14 06:23:16;;;;;;;4.67;2.60;;;;;;;31.92;65.63;100579.27;1518425;92;21493;-84
2021/06/14 06:25:43;;;;;;;3.92;2.40;;;;;;;31.73;66.15;100586.69;1512130;93;21064;-83
2021/06/14 06:28:09;;;;;;;7.40;2.55;;;;;;;31.81;70.26;100589.03;1540255;92;21567;-82
2021/06/14 06:33:06;;;;;;;4.08;2.60;;;;;;;32.72;62.13;100595.06;1534124;92;21087;-84
2021/06/14 06:35:32;;;;;;;5.17;2.52;;;;;;;32.94;61.38;100604.03;1489162;95;21137;-83
2021/06/14 06:37:59;;;;;;;5.22;2.70;;;;;;;33.27;58.00;100593.95;1489596;96;21149;-83
2021/06/14 06:40:24;;;;;;;3.90;2.27;;;;;;;33.41;55.91;100592.41;1514040;92;21596;-82
2021/06/14 06:42:51;;;;;;;2.95;2.20;;;;;;;33.09;53.90;100598.34;1555977;92;21179;-83
2021/06/14 06:45:18;;;;;;;2.90;2.37;;;;;;;32.97;53.42;100596.25;1536336;92;21199;-83
2021/06/14 06:47:44;;;;;;;2.47;2.15;;;;;;;33.11;54.23;100607.11;1555525;91;21125;-82
2021/06/14 06:50:11;;;;;;;4.30;2.40;;;;;;;33.44;52.14;100598.56;1554449;92;21211;-83
2021/06/14 06:52:37;;;;;;;4.85;2.58;;;;;;;33.33;50.91;100602.10;1555471;92;21513;-83
2021/06/14 06:55:10;;;;;;;5.53;2.80;;;;;;;33.23;51.36;100607.36;1552086;92;21089;-83
2021/06/14 06:57:37;;;;;;;6.05;2.55;;;;;;;33.40;52.51;100599.22;1586577;89;21478;-83
2021/06/14 07:00:11;;;;;;;2.42;2.22;;;;;;;33.70;50.76;100604.07;1556954;90;21567;-84
2021/06/14 07:02:37;;;;;;;5.62;2.30;;;;;;;33.77;52.56;100610.98;1486184;96;21193;-82
2021/06/14 07:05:04;;;;;;;2.98;2.40;;;;;;;33.78;49.26;100615.36;1486600;96;20994;-82
2021/06/14 07:07:30;;;;;;;4.55;2.50;;;;;;;33.80;49.07;100621.33;1471159;97;22031;-83
2021/06/14 07:09:57;;;;;;;3.20;2.60;;;;;;;34.12;48.41;100627.11;1470843;97;21213;-83
2021/06/14 07:12:23;;;;;;;3.35;2.20;;;;;;;34.41;47.73;100629.50;1470815;95;21208;-82
2021/06/14 07:14:50;;;;;;;3.75;2.47;;;;;;;34.47;46.39;100625.00;1490348;96;21133;-83
2021/06/14 07:17:16;;;;;;;3.83;2.77;;;;;;;34.61;47.64;100629.63;1493532;94;21090;-83
2021/06/14 07:19:43;;;;;;;3.70;2.20;;;;;;;35.12;45.65;100633.98;1507624;93;21173;-82
2021/06/14 07:22:09;;;;;;;3.92;2.58;;;;;;;35.25;42.65;100630.73;1521963;94;21085;-83
2021/06/14 07:24:35;;;;;;;2.98;2.20;;;;;;;35.44;41.98;100627.75;1503318;94;21588;-83
2021/06/14 07:27:01;;;;;;;2.25;2.02;;;;;;;35.64;40.23;100633.39;1521285;93;21088;-83
2021/06/14 07:29:28;;;;;;;2.30;2.00;;;;;;;35.89;39.80;100629.30;1526019;91;21671;-83
2021/06/14 07:31:57;;;;;;;4.92;2.00;;;;;;;36.34;38.34;100639.94;1566287;89;21222;-83
2021/06/14 07:34:22;;;;;;;2.75;2.20;;;;;;;37.05;37.97;100638.22;1598499;89;21043;-84
2021/06/14 07:36:48;;;;;;;4.95;2.10;;;;;;;37.47;36.11;100640.34;1598997;89;20936;-82
2021/06/14 07:39:15;;;;;;;7.22;2.17;;;;;;;37.24;34.38;100653.39;1598600;88;21008;-82
2021/06/14 07:41:42;;;;;;;2.05;1.95;;;;;;;36.50;35.57;100648.98;1598717;89;21119;-82
2021/06/14 07:44:08;;;;;;;3.40;1.90;;;;;;;36.33;35.12;100658.02;1598642;89;22077;-82
2021/06/14 07:46:34;;;;;;;3.85;2.10;;;;;;;36.25;34.83;100655.19;1599039;89;21052;-83
2021/06/14 07:49:04;;;;;;;2.98;2.00;;;;;;;36.23;35.93;100658.42;1599120;89;21138;-83
2021/06/14 07:51:29;;;;;;;2.62;2.00;;;;;;;35.81;34.13;100650.30;1599164;89;21269;-83
2021/06/14 07:53:55;;;;;;;2.17;2.00;;;;;;;35.13;35.92;100665.59;1599128;89;21120;-83
2021/06/14 07:56:22;;;;;;;2.80;2.02;;;;;;;34.55;37.53;100666.48;1599002;89;21083;-82
2021/06/14 07:58:48;;;;;;;3.85;1.80;;;;;;;34.44;38.83;100663.64;1619217;85;20955;-83
2021/06/14 08:01:15;;;;;;;2.45;1.75;;;;;;;34.45;38.66;100666.64;1678982;85;20995;-83
2021/06/14 08:03:41;;;;;;;4.47;1.80;;;;;;;34.53;37.28;100665.30;1678649;82;21057;-84
2021/06/14 08:06:07;;;;;;;4.40;1.80;;;;;;;34.30;37.64;100671.04;1679023;85;21510;-83
2021/06/14 08:08:34;;;;;;;1.65;1.55;;;;;;;34.15;38.86;100672.42;1679004;85;21065;-83
2021/06/14 08:11:00;;;;;;;3.65;1.87;;;;;;;34.57;38.77;100671.06;1681343;84;21029;-84
2021/06/14 08:13:28;;;;;;;2.22;2.00;;;;;;;35.01;38.22;100676.77;1669488;84;21079;-83
2021/06/14 08:15:55;;;;;;;3.60;1.67;;;;;;;34.86;38.61;100679.61;1691418;84;21028;-83
2021/06/14 08:26:18;;;;;;;2.40;1.67;;;;;;;34.43;38.08;100681.66;1731270;83;21514;-83
2021/06/14 08:28:44;;;;;;;4.70;1.90;;;;;;;34.10;37.96;100682.09;1731574;82;21063;-83
2021/06/14 08:31:10;;;;;;;2.87;1.70;;;;;;;33.87;38.64;100683.36;1731616;82;21627;-83
2021/06/14 08:33:36;;;;;;;2.77;2.02;;;;;;;33.99;39.75;100687.61;1731442;82;21115;-83
2021/06/14 08:36:03;;;;;;;2.70;1.62;;;;;;;34.37;39.52;100686.92;1731504;82;21033;-83
2021/06/14 08:38:29;;;;;;;4.37;1.70;;;;;;;34.85;38.62;100688.63;1731344;82;21093;-82
2021/06/14 08:40:55;;;;;;;7.05;1.90;;;;;;;35.32;37.85;100693.47;1699034;84;20985;-84
2021/06/14 08:43:22;;;;;;;2.45;1.77;;;;;;;35.55;38.84;100685.05;1667961;84;21041;-93
2021/06/14 08:45:51;;;;;;;3.47;1.85;;;;;;;36.21;38.44;100677.73;1694217;84;21759;-94
2021/06/14 08:48:50;;;;;;;3.60;1.90;;;;;;;36.77;37.31;100676.25;1693881;84;21036;-94
2021/06/14 08:51:16;;;;;;;2.72;1.70;;;;;;;36.53;36.17;100693.06;1694082;84;21063;-95
2021/06/14 08:53:42;;;;;;;3.00;1.80;;;;;;;35.73;36.74;100692.33;1694414;84;20964;-95
2021/06/14 08:56:10;;;;;;;3.65;1.62;;;;;;;35.68;38.49;100693.61;1672325;84;21124;-94
2021/06/14 08:58:36;;;;;;;3.42;1.57;;;;;;;36.38;37.31;100695.38;1694105;84;21077;-92
2021/06/14 09:01:04;;;;;;;1.65;1.50;;;;;;;36.55;37.24;100694.21;1694276;84;21009;-95
2021/06/14 09:03:36;;;;;;;1.87;1.67;;;;;;;35.89;36.64;100709.24;1694055;84;21076;-94
2021/06/14 09:06:02;;;;;;;;;;;;;;;35.60;37.54;100703.41;1696772;84;21025;-92
2021/06/14 09:08:29;;;;;;;1.70;1.60;;;;;;;35.22;38.60;100707.25;1694258;84;20551;-94
2021/06/14 09:10:56;;;;;;;6.42;1.98;;;;;;;35.15;38.71;100700.97;1693477;83;21074;-95
2021/06/14 09:13:29;;;;;;;4.17;1.80;;;;;;;34.47;40.17;100685.97;1731967;82;21022;-92
2021/06/14 09:19:55;;;;;;;1.77;1.67;;;;;;;34.19;39.80;100696.97;1716100;83;20972;-94
2021/06/14 09:22:25;;;;;;;1.98;1.47;;;;;;;34.13;39.25;100695.85;1688406;83;21025;-94
2021/06/14 09:25:07;;;;;;;4.72;1.98;;;;;;;33.70;40.76;100696.33;1708444;84;21555;-93
2021/06/14 09:27:45;;;;;;;1.95;1.75;;;;;;;33.67;40.66;100700.74;1712580;82;20999;-93
2021/06/14 09:30:25;;;;;;;6.70;1.98;;;;;;;33.92;40.12;100698.28;1711499;83;20992;-95
2021/06/14 09:33:01;;;;;;;3.10;1.70;;;;;;;34.30;40.85;100696.22;1713353;83;21079;-94
2021/06/14 09:35:37;;;;;;;1.85;1.60;;;;;;;34.75;37.65;100703.60;1713678;83;21443;-92
2021/06/14 09:38:15;;;;;;;2.58;1.55;;;;;;;34.96;37.92;100701.06;1636210;83;21989;-94
2021/06/14 09:40:47;;;;;;;5.35;1.70;;;;;;;35.29;38.40;100709.13;1634272;87;21114;-95
2021/06/14 09:43:37;;;;;;;6.33;1.55;;;;;;;35.74;38.54;100709.33;1634521;87;21593;-92
2021/06/14 09:46:30;;;;;;;6.40;2.08;;;;;;;36.18;38.53;100684.80;1634488;87;21524;-94
2021/06/14 09:49:04;;;;;;;3.50;2.02;;;;;;;36.29;37.84;100700.19;1632843;87;21031;-93
2021/06/14 09:51:34;;;;;;;6.40;1.50;;;;;;;35.86;37.58;100696.88;1634128;87;21358;-96
2021/06/14 09:54:06;;;;;;;3.37;1.70;;;;;;;35.44;36.90;100710.45;1635906;86;21114;-95
2021/06/14 09:56:37;;;;;;;6.10;1.80;;;;;;;34.38;38.04;100706.69;1634334;87;21118;-94
2021/06/14 09:59:07;;;;;;;5.10;2.08;;;;;;;33.84;38.79;100702.37;1634387;87;21095;-94
2021/06/14 10:02:38;;;;;;;2.83;2.27;;;;;;;33.78;39.23;100704.03;1635947;83;21537;-95
2021/06/14 10:05:19;;;;;;;6.25;2.20;;;;;;;33.41;40.46;100689.59;1635091;87;22185;-95
2021/06/14 10:22:08;;;;;;;4.22;1.77;;;;;;;32.38;44.08;100686.17;1750342;80;21492;-94
2021/06/14 10:24:35;;;;;;;3.80;1.75;;;;;;;32.08;42.32;100695.27;1754152;81;21009;-95
2021/06/14 10:27:48;;;;;;;3.58;1.65;;;;;;;31.58;45.00;100686.26;1754584;81;21598;-92
2021/06/14 10:30:17;;;;;;;1.90;1.60;;;;;;;31.44;44.55;100694.03;1754600;81;20945;-95
2021/06/14 10:32:45;;;;;;;2.95;1.80;;;;;;;31.17;44.26;100688.86;1754291;81;20986;-94
2021/06/14 10:50:12;;;;;;;2.72;1.65;;;;;;;30.92;45.55;100679.13;1753569;81;20994;-95
2021/06/14 10:52:42;;;;;;;5.03;2.00;;;;;;;31.16;45.82;100676.75;1733663;81;21024;-94
2021/06/14 11:01:44;;;;;;;1.95;1.50;;;;;;;30.90;45.84;100679.33;1673256;83;21099;-96
2021/06/14 11:04:28;;;;;;;1.80;1.45;;;;;;;31.44;46.11;100674.53;1635937;87;21938;-90
2021/06/14 11:06:57;;;;;;;3.37;1.42;;;;;;;31.94;44.63;100675.81;1635868;84;21144;-92
2021/06/14 11:09:24;;;;;;;5.05;1.67;;;;;;;31.70;44.83;100676.07;1636600;87;21543;-91
2021/06/14 11:11:58;;;;;;;2.45;1.50;;;;;;;32.04;44.75;100668.63;1636518;86;21587;-92
2021/06/14 11:14:38;;;;;;;4.12;1.75;;;;;;;32.32;44.10;100671.84;1636603;87;21072;-92
2021/06/14 11:17:24;;;;;;;3.05;1.72;;;;;;;31.76;45.10;100677.84;1611204;87;21553;-92
2021/06/14 11:20:02;;;;;;;7.72;2.37;;;;;;;31.05;46.55;100679.52;1636178;87;21539;-94
2021/06/14 11:44:33;;;;;;;4.67;2.85;;;;;;;29.06;56.97;100665.77;1403979;98;21248;-92
2021/06/14 11:47:13;;;;;;;5.03;2.52;;;;;;;29.14;61.10;100656.89;1397895;102;21247;-92
2021/06/14 11:49:41;;;;;;;6.53;2.45;;;;;;;29.51;58.29;100655.96;1364326;102;21159;-95
2021/06/14 11:52:21;;;;;;;5.83;2.20;;;;;;;29.85;55.98;100653.77;1357000;104;21119;-92
2021/06/14 11:54:55;;;;;;;4.22;2.20;;;;;;;29.54;55.34;100653.20;1357290;105;21824;-93
2021/06/14 11:57:43;;;;;;;3.10;2.17;;;;;;;29.41;58.72;100652.73;1358271;101;21673;-92
2021/06/14 12:00:14;;;;;;;2.85;2.17;;;;;;;29.41;58.47;100649.13;1355432;105;21210;-91
2021/06/14 12:02:40;;;;;;;5.25;2.30;;;;;;;29.39;59.35;100654.30;1315439;105;21246;-92
2021/06/14 12:05:08;;;;;;;2.72;1.98;;;;;;;29.13;60.70;100652.53;1315893;107;21567;-93
2021/06/14 12:08:07;;;;;;;4.15;2.10;;;;;;;29.01;59.28;100653.59;1360893;104;21109;-91
2021/06/14 12:13:08;;;;;;;5.30;2.50;;;;;;;29.09;60.32;100640.02;1369466;104;21942;-93
2021/06/14 12:15:35;;;;;;;2.60;2.20;;;;;;;29.33;60.40;100633.04;1369664;104;21184;-91
2021/06/14 12:18:02;;;;;;;5.15;2.05;;;;;;;29.61;56.71;100633.78;1384457;102;21133;-92
2021/06/14 12:20:35;;;;;;;4.60;1.52;;;;;;;29.76;56.74;100636.66;1394748;102;21138;-92
2021/06/14 12:23:11;;;;;;;5.75;2.10;;;;;;;29.86;53.00;100641.48;1376505;103;21158;-91
2021/06/14 12:25:43;;;;;;;2.45;1.90;;;;;;;30.05;53.58;100639.76;1377856;104;21176;-92
2021/06/14 12:28:21;;;;;;;6.22;2.42;;;;;;;30.09;52.51;100632.24;1398841;97;21181;-93
2021/06/14 12:30:52;;;;;;;3.08;1.95;;;;;;;30.13;54.55;100632.25;1453993;97;21120;-92
2021/06/14 12:33:31;;;;;;;3.15;2.00;;;;;;;30.06;52.47;100642.76;1425737;100;21583;-91
2021/06/14 12:35:58;;;;;;;4.10;2.02;;;;;;;29.85;53.04;100642.05;1425766;100;21178;-94
2021/06/14 12:38:54;;;;;;;2.72;1.72;;;;;;;29.66;54.78;100640.98;1423083;100;21152;-93
2021/06/14 12:41:21;;;;;;;4.70;1.70;;;;;;;29.79;53.27;100638.06;1434080;100;21075;-91
2021/06/14 12:43:49;;;;;;;2.50;1.80;;;;;;;30.01;53.82;100637.56;1434620;100;21596;-93
2021/06/14 12:46:15;;;;;;;2.87;2.10;;;;;;;30.23;53.50;100632.89;1431733;100;21629;-91
2021/06/14 12:48:51;;;;;;;2.83;1.98;;;;;;;30.38;53.15;100629.54;1434771;100;21087;-93